sensor_id;sensor_type;location;lat;lon;timestamp;pressure;altitude;pressure_sealevel;temperature;humidity
6393;BME280;3229;42.674;23.282;2023-05-15T00:01:17;94606.41;;;14.78;74.30
6393;BME280;3229;42.674;23.282;2023-05-15T00:03:43;94606.22;;;14.80;74.33
6393;BME280;3229;42.674;23.282;2023-05-15T00:06:10;94600.44;;;14.78;74.34
6393;BME280;3229;42.674;23.282;2023-05-15T00:08:37;94577.44;;;14.76;74.56
6393;BME280;3229;42.674;23.282;2023-05-15T00:11:05;94591.13;;;14.77;74.60
6393;BME280;3229;42.674;23.282;2023-05-15T00:13:32;94617.66;;;14.77;74.55
6393;BME280;3229;42.674;23.282;2023-05-15T00:15:59;94619.44;;;14.77;74.50
6393;BME280;3229;42.674;23.282;2023-05-15T00:18:26;94634.91;;;14.77;74.62
6393;BME280;3229;42.674;23.282;2023-05-15T00:20:52;94628.13;;;14.76;74.57
6393;BME280;3229;42.674;23.282;2023-05-15T00:23:19;94626.50;;;14.75;74.73
6393;BME280;3229;42.674;23.282;2023-05-15T00:25:46;94624.13;;;14.73;74.81
6393;BME280;3229;42.674;23.282;2023-05-15T00:28:14;94533.66;;;14.21;74.75
6393;BME280;3229;42.674;23.282;2023-05-15T00:30:41;94622.66;;;14.71;74.79
6393;BME280;3229;42.674;23.282;2023-05-15T00:33:08;94633.28;;;14.68;74.87
6393;BME280;3229;42.674;23.282;2023-05-15T00:35:34;94639.41;;;14.67;74.86
6393;BME280;3229;42.674;23.282;2023-05-15T00:38:01;94635.22;;;14.66;74.88
6393;BME280;3229;42.674;23.282;2023-05-15T00:40:29;94619.16;;;14.64;74.99
6393;BME280;3229;42.674;23.282;2023-05-15T00:42:57;94605.03;;;14.51;74.81
6393;BME280;3229;42.674;23.282;2023-05-15T00:45:27;94629.59;;;14.62;74.84
6393;BME280;3229;42.674;23.282;2023-05-15T00:47:54;94631.84;;;14.57;75.02
6393;BME280;3229;42.674;23.282;2023-05-15T00:50:23;94634.25;;;14.59;75.10
6393;BME280;3229;42.674;23.282;2023-05-15T00:52:51;94636.22;;;14.57;75.09
6393;BME280;3229;42.674;23.282;2023-05-15T00:55:18;94623.97;;;14.50;74.96
6393;BME280;3229;42.674;23.282;2023-05-15T00:57:46;94626.22;;;14.53;75.18
6393;BME280;3229;42.674;23.282;2023-05-15T01:00:14;94617.09;;;14.51;75.17
6393;BME280;3229;42.674;23.282;2023-05-15T01:02:44;94625.75;;;14.50;75.10
6393;BME280;3229;42.674;23.282;2023-05-15T01:05:12;94628.50;;;14.48;75.37
6393;BME280;3229;42.674;23.282;2023-05-15T01:07:46;94631.22;;;14.47;75.56
6393;BME280;3229;42.674;23.282;2023-05-15T01:10:15;94640.06;;;14.44;75.36
6393;BME280;3229;42.674;23.282;2023-05-15T01:12:45;94619.28;;;14.38;75.49
6393;BME280;3229;42.674;23.282;2023-05-15T01:15:12;94607.72;;;14.42;75.41
6393;BME280;3229;42.674;23.282;2023-05-15T01:17:39;94611.25;;;14.41;75.30
6393;BME280;3229;42.674;23.282;2023-05-15T01:20:10;94607.09;;;14.40;75.40
6393;BME280;3229;42.674;23.282;2023-05-15T01:22:45;94607.25;;;14.38;75.45
6393;BME280;3229;42.674;23.282;2023-05-15T01:25:45;94593.91;;;14.35;75.46
6393;BME280;3229;42.674;23.282;2023-05-15T01:28:24;94591.34;;;14.35;75.57
6393;BME280;3229;42.674;23.282;2023-05-15T01:30:57;94587.19;;;14.34;75.55
6393;BME280;3229;42.674;23.282;2023-05-15T01:33:28;94596.97;;;14.30;75.56
6393;BME280;3229;42.674;23.282;2023-05-15T01:36:06;94592.47;;;14.32;75.57
6393;BME280;3229;42.674;23.282;2023-05-15T01:38:37;94591.84;;;14.30;75.65
6393;BME280;3229;42.674;23.282;2023-05-15T01:41:09;94588.47;;;14.29;75.52
6393;BME280;3229;42.674;23.282;2023-05-15T01:43:43;94572.69;;;14.24;75.81
6393;BME280;3229;42.674;23.282;2023-05-15T01:46:12;94573.53;;;14.25;75.65
6393;BME280;3229;42.674;23.282;2023-05-15T01:48:40;94552.97;;;14.00;75.52
6393;BME280;3229;42.674;23.282;2023-05-15T01:51:09;94578.00;;;14.23;75.66
6393;BME280;3229;42.674;23.282;2023-05-15T01:53:39;94567.91;;;14.21;75.63
6393;BME280;3229;42.674;23.282;2023-05-15T01:56:07;94566.94;;;14.14;75.65
6393;BME280;3229;42.674;23.282;2023-05-15T01:58:36;94586.22;;;14.18;75.49
6393;BME280;3229;42.674;23.282;2023-05-15T02:01:05;94586.53;;;14.15;75.90
6393;BME280;3229;42.674;23.282;2023-05-15T02:03:32;94596.69;;;14.17;75.85
6393;BME280;3229;42.674;23.282;2023-05-15T02:06:00;94591.66;;;14.15;75.87
6393;BME280;3229;42.674;23.282;2023-05-15T02:08:28;94584.31;;;14.12;75.72
6393;BME280;3229;42.674;23.282;2023-05-15T02:10:57;94593.44;;;14.15;75.77
6393;BME280;3229;42.674;23.282;2023-05-15T02:13:25;94598.75;;;14.13;75.82
6393;BME280;3229;42.674;23.282;2023-05-15T02:15:52;94595.38;;;14.13;75.92
6393;BME280;3229;42.674;23.282;2023-05-15T02:18:21;94585.09;;;14.13;75.93
6393;BME280;3229;42.674;23.282;2023-05-15T02:20:47;94580.91;;;14.12;75.72
6393;BME280;3229;42.674;23.282;2023-05-15T02:23:14;94579.66;;;14.08;75.84
6393;BME280;3229;42.674;23.282;2023-05-15T02:25:45;94585.25;;;14.11;75.92
6393;BME280;3229;42.674;23.282;2023-05-15T02:28:20;94570.00;;;14.10;76.04
6393;BME280;3229;42.674;23.282;2023-05-15T02:30:54;94575.94;;;14.10;75.86
6393;BME280;3229;42.674;23.282;2023-05-15T02:33:33;94557.13;;;14.10;75.78
6393;BME280;3229;42.674;23.282;2023-05-15T02:36:04;94557.13;;;14.10;75.89
6393;BME280;3229;42.674;23.282;2023-05-15T02:38:36;94560.50;;;14.10;75.95
6393;BME280;3229;42.674;23.282;2023-05-15T02:41:05;94559.53;;;14.11;75.81
6393;BME280;3229;42.674;23.282;2023-05-15T02:43:34;94573.19;;;14.12;75.88
6393;BME280;3229;42.674;23.282;2023-05-15T02:46:02;94571.44;;;14.12;75.82
6393;BME280;3229;42.674;23.282;2023-05-15T02:48:31;94576.41;;;14.14;75.77
6393;BME280;3229;42.674;23.282;2023-05-15T02:50:58;94556.97;;;14.11;75.67
6393;BME280;3229;42.674;23.282;2023-05-15T02:53:26;94553.91;;;14.16;75.95
6393;BME280;3229;42.674;23.282;2023-05-15T02:55:53;94549.91;;;14.13;76.04
6393;BME280;3229;42.674;23.282;2023-05-15T02:58:20;94547.81;;;14.17;75.79
6393;BME280;3229;42.674;23.282;2023-05-15T03:00:47;94543.47;;;14.17;75.82
6393;BME280;3229;42.674;23.282;2023-05-15T03:03:14;94554.38;;;14.19;75.86
6393;BME280;3229;42.674;23.282;2023-05-15T03:05:42;94557.94;;;14.18;75.76
6393;BME280;3229;42.674;23.282;2023-05-15T03:08:09;94562.09;;;14.19;75.88
6393;BME280;3229;42.674;23.282;2023-05-15T03:10:36;94573.97;;;14.20;76.02
6393;BME280;3229;42.674;23.282;2023-05-15T03:13:02;94571.41;;;14.20;76.06
6393;BME280;3229;42.674;23.282;2023-05-15T03:15:29;94555.84;;;14.14;75.83
6393;BME280;3229;42.674;23.282;2023-05-15T03:17:56;94569.31;;;14.24;75.87
6393;BME280;3229;42.674;23.282;2023-05-15T03:20:24;94569.97;;;14.26;75.84
6393;BME280;3229;42.674;23.282;2023-05-15T03:22:52;94559.69;;;14.18;75.93
6393;BME280;3229;42.674;23.282;2023-05-15T03:25:19;94568.84;;;14.28;75.83
6393;BME280;3229;42.674;23.282;2023-05-15T03:27:46;94565.63;;;14.26;75.78
6393;BME280;3229;42.674;23.282;2023-05-15T03:30:13;94533.19;;;14.09;75.79
6393;BME280;3229;42.674;23.282;2023-05-15T03:32:40;94559.19;;;14.30;75.82
6393;BME280;3229;42.674;23.282;2023-05-15T03:35:07;94561.44;;;14.34;75.64
6393;BME280;3229;42.674;23.282;2023-05-15T03:37:34;94543.28;;;14.35;75.97
6393;BME280;3229;42.674;23.282;2023-05-15T03:40:03;94556.75;;;14.37;75.72
6393;BME280;3229;42.674;23.282;2023-05-15T03:42:31;94554.34;;;14.36;75.62
6393;BME280;3229;42.674;23.282;2023-05-15T03:44:58;94549.53;;;14.41;75.59
6393;BME280;3229;42.674;23.282;2023-05-15T03:47:25;94547.59;;;14.43;75.71
6393;BME280;3229;42.674;23.282;2023-05-15T03:49:52;94560.28;;;14.44;75.73
6393;BME280;3229;42.674;23.282;2023-05-15T03:52:19;94555.63;;;14.40;75.63
6393;BME280;3229;42.674;23.282;2023-05-15T03:54:46;94569.47;;;14.47;75.75
6393;BME280;3229;42.674;23.282;2023-05-15T03:57:14;94561.41;;;14.50;75.60
6393;BME280;3229;42.674;23.282;2023-05-15T03:59:41;94558.06;;;14.49;75.45
6393;BME280;3229;42.674;23.282;2023-05-15T04:02:08;94567.84;;;14.54;75.30
6393;BME280;3229;42.674;23.282;2023-05-15T04:04:35;94560.13;;;14.54;75.46
6393;BME280;3229;42.674;23.282;2023-05-15T04:07:03;94566.41;;;14.60;75.36
6393;BME280;3229;42.674;23.282;2023-05-15T04:09:30;94564.78;;;14.59;75.39
6393;BME280;3229;42.674;23.282;2023-05-15T04:11:57;94567.03;;;14.62;75.34
6393;BME280;3229;42.674;23.282;2023-05-15T04:14:25;94549.19;;;14.44;75.55
6393;BME280;3229;42.674;23.282;2023-05-15T04:16:52;94574.56;;;14.63;75.42
6393;BME280;3229;42.674;23.282;2023-05-15T04:19:18;94584.72;;;14.65;75.27
6393;BME280;3229;42.674;23.282;2023-05-15T04:21:55;94568.66;;;14.54;75.44
6393;BME280;3229;42.674;23.282;2023-05-15T04:24:22;94585.34;;;14.67;75.22
6393;BME280;3229;42.674;23.282;2023-05-15T04:26:48;94572.47;;;14.67;75.36
6393;BME280;3229;42.674;23.282;2023-05-15T04:29:15;94575.34;;;14.72;75.32
6393;BME280;3229;42.674;23.282;2023-05-15T04:31:43;94577.94;;;14.72;75.22
6393;BME280;3229;42.674;23.282;2023-05-15T04:34:10;94568.75;;;14.77;75.26
6393;BME280;3229;42.674;23.282;2023-05-15T04:36:37;94554.72;;;14.80;75.13
6393;BME280;3229;42.674;23.282;2023-05-15T04:39:04;94556.19;;;14.83;75.12
6393;BME280;3229;42.674;23.282;2023-05-15T04:41:33;94540.41;;;14.86;75.00
6393;BME280;3229;42.674;23.282;2023-05-15T04:44:00;94533.97;;;14.90;75.05
6393;BME280;3229;42.674;23.282;2023-05-15T04:46:26;94543.91;;;14.93;74.91
6393;BME280;3229;42.674;23.282;2023-05-15T04:48:54;94564.00;;;14.97;74.87
6393;BME280;3229;42.674;23.282;2023-05-15T04:51:21;94565.28;;;15.01;74.82
6393;BME280;3229;42.674;23.282;2023-05-15T04:53:48;94556.41;;;15.04;74.78
6393;BME280;3229;42.674;23.282;2023-05-15T04:56:15;94559.94;;;15.11;76.01
6393;BME280;3229;42.674;23.282;2023-05-15T04:58:42;94563.13;;;15.44;90.15
6393;BME280;3229;42.674;23.282;2023-05-15T05:01:09;94547.75;;;15.82;92.11
6393;BME280;3229;42.674;23.282;2023-05-15T05:03:35;94537.84;;;16.23;91.48
6393;BME280;3229;42.674;23.282;2023-05-15T05:06:04;94530.44;;;16.58;90.24
6393;BME280;3229;42.674;23.282;2023-05-15T05:08:31;94535.59;;;16.88;88.81
6393;BME280;3229;42.674;23.282;2023-05-15T05:10:58;94526.66;;;17.05;87.35
6393;BME280;3229;42.674;23.282;2023-05-15T05:13:24;94537.56;;;17.22;85.35
6393;BME280;3229;42.674;23.282;2023-05-15T05:15:51;94535.78;;;17.22;83.82
6393;BME280;3229;42.674;23.282;2023-05-15T05:18:18;94537.13;;;17.18;82.81
6393;BME280;3229;42.674;23.282;2023-05-15T05:20:45;94534.13;;;17.15;82.10
6393;BME280;3229;42.674;23.282;2023-05-15T05:23:13;94531.09;;;17.11;81.26
6393;BME280;3229;42.674;23.282;2023-05-15T05:25:41;94471.91;;;16.65;80.57
6393;BME280;3229;42.674;23.282;2023-05-15T05:28:07;94554.91;;;17.07;80.20
6393;BME280;3229;42.674;23.282;2023-05-15T05:30:34;94548.94;;;17.06;79.79
6393;BME280;3229;42.674;23.282;2023-05-15T05:33:01;94543.78;;;17.06;79.28
6393;BME280;3229;42.674;23.282;2023-05-15T05:35:28;94546.16;;;17.08;78.79
6393;BME280;3229;42.674;23.282;2023-05-15T05:37:55;94537.06;;;17.12;78.39
6393;BME280;3229;42.674;23.282;2023-05-15T05:40:23;94511.34;;;17.03;77.77
6393;BME280;3229;42.674;23.282;2023-05-15T05:42:50;94536.34;;;17.18;77.43
6393;BME280;3229;42.674;23.282;2023-05-15T05:45:17;94541.47;;;17.33;76.78
6393;BME280;3229;42.674;23.282;2023-05-15T05:47:44;94529.41;;;17.40;76.31
6393;BME280;3229;42.674;23.282;2023-05-15T05:50:11;94541.31;;;17.55;75.54
6393;BME280;3229;42.674;23.282;2023-05-15T05:52:38;94545.44;;;17.71;75.20
6393;BME280;3229;42.674;23.282;2023-05-15T05:55:05;94546.44;;;17.92;74.62
6393;BME280;3229;42.674;23.282;2023-05-15T05:57:33;94543.69;;;18.21;73.63
6393;BME280;3229;42.674;23.282;2023-05-15T06:00:00;94553.97;;;18.43;73.05
6393;BME280;3229;42.674;23.282;2023-05-15T06:02:30;94523.13;;;18.41;72.85
6393;BME280;3229;42.674;23.282;2023-05-15T06:04:57;94549.31;;;18.60;72.50
6393;BME280;3229;42.674;23.282;2023-05-15T06:07:24;94549.75;;;18.63;72.60
6393;BME280;3229;42.674;23.282;2023-05-15T06:09:51;94559.72;;;18.66;72.28
6393;BME280;3229;42.674;23.282;2023-05-15T06:12:17;94550.97;;;18.67;72.23
6393;BME280;3229;42.674;23.282;2023-05-15T06:14:46;94535.63;;;18.66;72.10
6393;BME280;3229;42.674;23.282;2023-05-15T06:17:13;94537.16;;;18.60;72.12
6393;BME280;3229;42.674;23.282;2023-05-15T06:19:39;94537.38;;;18.59;72.04
6393;BME280;3229;42.674;23.282;2023-05-15T06:22:06;94543.75;;;18.63;71.84
6393;BME280;3229;42.674;23.282;2023-05-15T06:24:33;94547.94;;;18.64;71.52
6393;BME280;3229;42.674;23.282;2023-05-15T06:27:00;94542.03;;;18.70;71.27
6393;BME280;3229;42.674;23.282;2023-05-15T06:29:27;94537.09;;;18.75;71.06
6393;BME280;3229;42.674;23.282;2023-05-15T06:31:55;94544.13;;;18.94;70.46
6393;BME280;3229;42.674;23.282;2023-05-15T06:34:22;94540.69;;;19.22;69.77
6393;BME280;3229;42.674;23.282;2023-05-15T06:36:49;94536.41;;;19.62;68.67
6393;BME280;3229;42.674;23.282;2023-05-15T06:39:16;94546.03;;;20.08;68.11
6393;BME280;3229;42.674;23.282;2023-05-15T06:41:43;94551.03;;;20.49;67.56
6393;BME280;3229;42.674;23.282;2023-05-15T06:44:10;94560.72;;;20.94;67.17
6393;BME280;3229;42.674;23.282;2023-05-15T06:46:37;94534.38;;;21.28;66.65
6393;BME280;3229;42.674;23.282;2023-05-15T06:49:05;94553.00;;;21.70;66.30
6393;BME280;3229;42.674;23.282;2023-05-15T06:51:32;94552.03;;;21.96;65.74
6393;BME280;3229;42.674;23.282;2023-05-15T06:53:59;94550.63;;;22.25;65.32
6393;BME280;3229;42.674;23.282;2023-05-15T06:56:25;94557.91;;;22.67;64.80
6393;BME280;3229;42.674;23.282;2023-05-15T06:58:52;94574.75;;;23.08;64.10
6393;BME280;3229;42.674;23.282;2023-05-15T07:01:19;94562.66;;;23.43;63.48
6393;BME280;3229;42.674;23.282;2023-05-15T07:03:46;94564.63;;;23.78;62.78
6393;BME280;3229;42.674;23.282;2023-05-15T07:06:14;94558.34;;;24.09;62.36
6393;BME280;3229;42.674;23.282;2023-05-15T07:08:41;94553.97;;;24.33;61.57
6393;BME280;3229;42.674;23.282;2023-05-15T07:11:07;94548.88;;;24.50;61.54
6393;BME280;3229;42.674;23.282;2023-05-15T07:13:34;94543.88;;;24.60;60.89
6393;BME280;3229;42.674;23.282;2023-05-15T07:16:01;94549.00;;;24.67;60.74
6393;BME280;3229;42.674;23.282;2023-05-15T07:18:28;94551.72;;;24.72;60.72
6393;BME280;3229;42.674;23.282;2023-05-15T07:20:56;94551.94;;;24.70;60.35
6393;BME280;3229;42.674;23.282;2023-05-15T07:23:25;94563.31;;;24.64;60.44
6393;BME280;3229;42.674;23.282;2023-05-15T07:25:53;94574.09;;;24.56;60.28
6393;BME280;3229;42.674;23.282;2023-05-15T07:28:20;94566.50;;;24.43;60.28
6393;BME280;3229;42.674;23.282;2023-05-15T07:30:47;94563.03;;;24.31;60.18
6393;BME280;3229;42.674;23.282;2023-05-15T07:33:14;94558.97;;;24.23;60.09
6393;BME280;3229;42.674;23.282;2023-05-15T07:35:41;94544.16;;;24.17;59.78
6393;BME280;3229;42.674;23.282;2023-05-15T07:38:07;94556.56;;;24.21;59.82
6393;BME280;3229;42.674;23.282;2023-05-15T07:40:36;94553.06;;;24.27;59.36
6393;BME280;3229;42.674;23.282;2023-05-15T07:43:03;94545.41;;;24.26;59.14
6393;BME280;3229;42.674;23.282;2023-05-15T07:45:29;94545.78;;;24.29;58.98
6393;BME280;3229;42.674;23.282;2023-05-15T07:47:56;94550.66;;;24.26;59.06
6393;BME280;3229;42.674;23.282;2023-05-15T07:50:23;94546.78;;;24.17;59.22
6393;BME280;3229;42.674;23.282;2023-05-15T07:52:50;94480.09;;;23.61;59.01
6393;BME280;3229;42.674;23.282;2023-05-15T07:55:17;94562.06;;;23.90;58.97
6393;BME280;3229;42.674;23.282;2023-05-15T07:57:45;94567.47;;;23.76;59.32
6393;BME280;3229;42.674;23.282;2023-05-15T08:00:13;94569.88;;;23.60;59.37
6393;BME280;3229;42.674;23.282;2023-05-15T08:02:40;94573.56;;;23.40;59.38
6393;BME280;3229;42.674;23.282;2023-05-15T08:05:10;94592.41;;;23.24;59.32
6393;BME280;3229;42.674;23.282;2023-05-15T08:07:37;94587.56;;;23.09;59.59
6393;BME280;3229;42.674;23.282;2023-05-15T08:10:06;94581.47;;;22.97;59.82
6393;BME280;3229;42.674;23.282;2023-05-15T08:12:33;94578.16;;;22.90;60.02
6393;BME280;3229;42.674;23.282;2023-05-15T08:15:02;94578.16;;;22.83;59.64
6393;BME280;3229;42.674;23.282;2023-05-15T08:17:28;94578.44;;;22.75;59.62
6393;BME280;3229;42.674;23.282;2023-05-15T08:19:55;94572.72;;;22.66;59.86
6393;BME280;3229;42.674;23.282;2023-05-15T08:22:22;94569.16;;;22.61;59.87
6393;BME280;3229;42.674;23.282;2023-05-15T08:24:49;94576.59;;;22.57;59.95
6393;BME280;3229;42.674;23.282;2023-05-15T08:27:16;94570.81;;;22.55;59.88
6393;BME280;3229;42.674;23.282;2023-05-15T08:29:42;94580.66;;;22.53;59.57
6393;BME280;3229;42.674;23.282;2023-05-15T08:32:11;94569.84;;;22.49;59.74
6393;BME280;3229;42.674;23.282;2023-05-15T08:34:37;94571.09;;;22.47;59.75
6393;BME280;3229;42.674;23.282;2023-05-15T08:37:04;94569.28;;;22.47;59.54
6393;BME280;3229;42.674;23.282;2023-05-15T08:39:31;94571.47;;;22.50;59.18
6393;BME280;3229;42.674;23.282;2023-05-15T08:42:07;94568.00;;;22.57;59.39
6393;BME280;3229;42.674;23.282;2023-05-15T08:44:36;94561.72;;;22.64;59.00
6393;BME280;3229;42.674;23.282;2023-05-15T08:47:04;94563.25;;;22.72;58.63
6393;BME280;3229;42.674;23.282;2023-05-15T08:49:38;94559.53;;;22.79;58.56
6393;BME280;3229;42.674;23.282;2023-05-15T08:52:10;94566.88;;;22.89;58.40
6393;BME280;3229;42.674;23.282;2023-05-15T08:54:38;94554.25;;;22.93;58.33
6393;BME280;3229;42.674;23.282;2023-05-15T08:57:05;94553.06;;;22.89;58.22
6393;BME280;3229;42.674;23.282;2023-05-15T08:59:32;94554.03;;;22.88;58.20
6393;BME280;3229;42.674;23.282;2023-05-15T09:01:59;94546.88;;;22.83;58.46
6393;BME280;3229;42.674;23.282;2023-05-15T09:04:26;94538.13;;;22.77;58.27
6393;BME280;3229;42.674;23.282;2023-05-15T09:06:54;94526.66;;;22.60;58.50
6393;BME280;3229;42.674;23.282;2023-05-15T09:09:23;94523.16;;;22.48;58.44
6393;BME280;3229;42.674;23.282;2023-05-15T09:11:50;94548.91;;;22.63;58.46
6393;BME280;3229;42.674;23.282;2023-05-15T09:14:17;94546.34;;;22.56;58.84
6393;BME280;3229;42.674;23.282;2023-05-15T09:16:44;94535.00;;;22.50;58.51
6393;BME280;3229;42.674;23.282;2023-05-15T09:19:14;94534.84;;;22.45;58.68
6393;BME280;3229;42.674;23.282;2023-05-15T09:21:41;94520.91;;;22.33;58.83
6393;BME280;3229;42.674;23.282;2023-05-15T09:24:20;94511.94;;;22.29;58.89
6393;BME280;3229;42.674;23.282;2023-05-15T09:27:00;94526.50;;;22.37;58.53
6393;BME280;3229;42.674;23.282;2023-05-15T09:29:28;94523.66;;;22.38;58.91
6393;BME280;3229;42.674;23.282;2023-05-15T09:31:55;94527.88;;;22.39;58.67
6393;BME280;3229;42.674;23.282;2023-05-15T09:34:28;94519.25;;;22.39;58.35
6393;BME280;3229;42.674;23.282;2023-05-15T09:36:56;94507.97;;;22.45;58.53
6393;BME280;3229;42.674;23.282;2023-05-15T09:39:24;94490.72;;;22.44;58.14
6393;BME280;3229;42.674;23.282;2023-05-15T09:41:51;94491.19;;;22.59;57.95
6393;BME280;3229;42.674;23.282;2023-05-15T09:44:19;94498.72;;;22.67;58.01
6393;BME280;3229;42.674;23.282;2023-05-15T09:46:50;94500.22;;;22.75;57.70
6393;BME280;3229;42.674;23.282;2023-05-15T09:49:17;94503.34;;;22.84;57.60
6393;BME280;3229;42.674;23.282;2023-05-15T09:51:44;94491.25;;;22.89;57.51
6393;BME280;3229;42.674;23.282;2023-05-15T09:54:16;94488.84;;;22.88;57.44
6393;BME280;3229;42.674;23.282;2023-05-15T09:56:46;94492.78;;;22.97;57.27
6393;BME280;3229;42.674;23.282;2023-05-15T09:59:13;94491.91;;;23.03;57.52
6393;BME280;3229;42.674;23.282;2023-05-15T10:01:45;94481.63;;;23.08;57.26
6393;BME280;3229;42.674;23.282;2023-05-15T10:04:12;94484.16;;;23.15;57.05
6393;BME280;3229;42.674;23.282;2023-05-15T10:06:42;94494.38;;;23.16;56.84
6393;BME280;3229;42.674;23.282;2023-05-15T10:09:09;94489.94;;;23.17;57.14
6393;BME280;3229;42.674;23.282;2023-05-15T10:11:38;94486.53;;;23.16;57.20
6393;BME280;3229;42.674;23.282;2023-05-15T10:14:07;94450.84;;;22.98;56.92
6393;BME280;3229;42.674;23.282;2023-05-15T10:16:36;94482.78;;;23.12;56.74
6393;BME280;3229;42.674;23.282;2023-05-15T10:19:04;94506.25;;;23.12;56.97
6393;BME280;3229;42.674;23.282;2023-05-15T10:21:32;94493.06;;;23.07;57.02
6393;BME280;3229;42.674;23.282;2023-05-15T10:24:00;94514.31;;;23.11;56.79
6393;BME280;3229;42.674;23.282;2023-05-15T10:26:34;94510.69;;;23.12;56.88
6393;BME280;3229;42.674;23.282;2023-05-15T10:29:08;94511.34;;;23.07;57.08
6393;BME280;3229;42.674;23.282;2023-05-15T10:31:36;94515.16;;;23.04;56.98
6393;BME280;3229;42.674;23.282;2023-05-15T10:34:03;94536.69;;;23.00;57.15
6393;BME280;3229;42.674;23.282;2023-05-15T10:36:31;94538.13;;;22.96;56.90
6393;BME280;3229;42.674;23.282;2023-05-15T10:38:59;94527.34;;;22.92;57.27
6393;BME280;3229;42.674;23.282;2023-05-15T10:41:27;94515.38;;;22.85;57.35
6393;BME280;3229;42.674;23.282;2023-05-15T10:43:58;94525.81;;;22.85;57.32
6393;BME280;3229;42.674;23.282;2023-05-15T10:46:28;94529.78;;;22.87;57.40
6393;BME280;3229;42.674;23.282;2023-05-15T10:48:56;94526.81;;;22.84;57.40
6393;BME280;3229;42.674;23.282;2023-05-15T10:51:24;94511.25;;;22.77;57.29
6393;BME280;3229;42.674;23.282;2023-05-15T10:53:53;94532.84;;;22.84;57.50
6393;BME280;3229;42.674;23.282;2023-05-15T10:56:25;94526.66;;;22.78;57.27
6393;BME280;3229;42.674;23.282;2023-05-15T10:58:53;94522.09;;;22.74;57.69
6393;BME280;3229;42.674;23.282;2023-05-15T11:01:24;94510.38;;;22.65;57.78
6393;BME280;3229;42.674;23.282;2023-05-15T11:04:03;94501.47;;;22.54;58.13
6393;BME280;3229;42.674;23.282;2023-05-15T11:06:31;94502.97;;;22.43;58.26
6393;BME280;3229;42.674;23.282;2023-05-15T11:11:59;94510.38;;;22.21;58.40
6393;BME280;3229;42.674;23.282;2023-05-15T11:14:27;94506.84;;;22.16;58.71
6393;BME280;3229;42.674;23.282;2023-05-15T11:16:58;94499.84;;;22.10;58.48
6393;BME280;3229;42.674;23.282;2023-05-15T11:22:18;94516.47;;;22.09;58.69
6393;BME280;3229;42.674;23.282;2023-05-15T11:24:51;94501.88;;;22.08;58.64
6393;BME280;3229;42.674;23.282;2023-05-15T11:27:19;94498.03;;;22.10;58.52
6393;BME280;3229;42.674;23.282;2023-05-15T11:30:05;94495.69;;;22.02;58.41
6393;BME280;3229;42.674;23.282;2023-05-15T11:32:52;94500.38;;;22.18;58.49
6393;BME280;3229;42.674;23.282;2023-05-15T11:35:26;94494.13;;;22.26;58.39
6393;BME280;3229;42.674;23.282;2023-05-15T11:37:54;94487.63;;;22.35;57.87
6393;BME280;3229;42.674;23.282;2023-05-15T11:40:23;94487.09;;;22.45;57.94
6393;BME280;3229;42.674;23.282;2023-05-15T11:43:04;94480.41;;;22.56;57.64
6393;BME280;3229;42.674;23.282;2023-05-15T11:45:33;94482.28;;;22.67;57.39
6393;BME280;3229;42.674;23.282;2023-05-15T11:48:02;94484.75;;;22.80;57.10
6393;BME280;3229;42.674;23.282;2023-05-15T11:50:31;94451.41;;;22.82;57.04
6393;BME280;3229;42.674;23.282;2023-05-15T11:53:01;94459.09;;;22.95;56.84
6393;BME280;3229;42.674;23.282;2023-05-15T11:55:30;94475.06;;;23.17;56.78
6393;BME280;3229;42.674;23.282;2023-05-15T11:57:58;94470.94;;;23.28;56.39
6393;BME280;3229;42.674;23.282;2023-05-15T12:00:25;94464.50;;;23.42;56.05
6393;BME280;3229;42.674;23.282;2023-05-15T12:02:52;94467.34;;;23.52;56.35
6393;BME280;3229;42.674;23.282;2023-05-15T12:05:19;94466.00;;;23.62;56.05
6393;BME280;3229;42.674;23.282;2023-05-15T12:07:47;94461.28;;;23.70;55.78
6393;BME280;3229;42.674;23.282;2023-05-15T12:10:14;94461.19;;;23.77;55.91
6393;BME280;3229;42.674;23.282;2023-05-15T12:12:42;94454.63;;;23.86;55.68
6393;BME280;3229;42.674;23.282;2023-05-15T12:15:10;94454.19;;;23.89;55.34
6393;BME280;3229;42.674;23.282;2023-05-15T12:17:38;94465.97;;;23.92;55.52
6393;BME280;3229;42.674;23.282;2023-05-15T12:20:07;94467.59;;;23.93;55.31
6393;BME280;3229;42.674;23.282;2023-05-15T12:22:38;94443.38;;;23.86;55.12
6393;BME280;3229;42.674;23.282;2023-05-15T12:25:09;94445.56;;;23.89;55.39
6393;BME280;3229;42.674;23.282;2023-05-15T12:27:37;94421.13;;;23.83;55.58
6393;BME280;3229;42.674;23.282;2023-05-15T12:30:06;94415.34;;;23.81;55.27
6393;BME280;3229;42.674;23.282;2023-05-15T12:32:34;94411.81;;;23.75;55.32
6393;BME280;3229;42.674;23.282;2023-05-15T12:35:03;94414.63;;;23.74;55.58
6393;BME280;3229;42.674;23.282;2023-05-15T12:37:30;94396.25;;;23.69;55.35
6393;BME280;3229;42.674;23.282;2023-05-15T12:40:00;94396.16;;;23.75;55.43
6393;BME280;3229;42.674;23.282;2023-05-15T12:42:30;94389.47;;;23.80;55.30
6393;BME280;3229;42.674;23.282;2023-05-15T12:44:56;94380.81;;;23.79;55.05
6393;BME280;3229;42.674;23.282;2023-05-15T12:47:24;94375.47;;;23.86;55.19
6393;BME280;3229;42.674;23.282;2023-05-15T12:49:55;94374.56;;;23.92;55.04
6393;BME280;3229;42.674;23.282;2023-05-15T12:52:22;94361.50;;;23.92;54.80
6393;BME280;3229;42.674;23.282;2023-05-15T12:54:50;94383.19;;;24.16;54.34
6393;BME280;3229;42.674;23.282;2023-05-15T12:57:20;94394.88;;;24.25;54.23
6393;BME280;3229;42.674;23.282;2023-05-15T12:59:49;94398.28;;;24.37;54.36
6393;BME280;3229;42.674;23.282;2023-05-15T13:02:16;94402.72;;;24.48;53.70
6393;BME280;3229;42.674;23.282;2023-05-15T13:04:45;94371.00;;;24.45;53.74
6393;BME280;3229;42.674;23.282;2023-05-15T13:07:14;94393.22;;;24.71;53.39
6393;BME280;3229;42.674;23.282;2023-05-15T13:09:42;94390.22;;;24.79;53.42
6393;BME280;3229;42.674;23.282;2023-05-15T13:12:11;94354.44;;;24.68;53.29
6393;BME280;3229;42.674;23.282;2023-05-15T13:14:38;94368.69;;;24.89;53.36
6393;BME280;3229;42.674;23.282;2023-05-15T13:17:09;94375.13;;;24.98;53.40
6393;BME280;3229;42.674;23.282;2023-05-15T13:19:36;94373.72;;;25.07;52.92
6393;BME280;3229;42.674;23.282;2023-05-15T13:22:03;94378.59;;;25.15;52.69